Hauptseite
METAR-TAF:

METAR-TAF

Flughäfen :

Passo Rolle, Italien

Breite: 46-18N, Länge: 011-47E, Höhe: 2004 m

Beobachtung

Neuester Wetterbericht von vor 1 Stunde und 31 Minuten, um 23:55 UTC
Wind 7 kt aus Ost/Südost
Temperatur -6°C
Luftfeuchtigkeit 93%
Luftdruck 1007 hPa
Sichtweite: 0050 m
Gefrierender Nebel

METAR: LIVR 242355Z 12007KT 0050 FZFG VV/// M06/M07 Q1007 RMK MON INVIS VIS MIN 0050

Zeit: 02:26 (01:26 UTC)


TAF: fehlend

Wetterbeobachtungen und Prognosen von mehr als 4000 Flughäfen (METAR und TAF Bericht).

Die verfügbaren Stationen werden durch gelbe und rote Markierungen auf der Karte dargestellt.

Führen Sie die Maus auf sie, um den Namen der Station zu sehen.

Darauf klicken, um die Beobachtung von Wetterbeobachtungen und Prognosen zu sehen.

Um die Karte zu ändern : klicken Sie auf den grünen Tasten mit einem schwarzen Kreuz Zum Vergrößern, auf den grünen Button mit einem Gedankenstrich zu verkleinern, oder auf die grünen Pfeile für benachbarte Karten.


METAR-TAF: